sensor_id;sensor_type;location;lat;lon;timestamp;pressure;altitude;pressure_sealevel;temperature;humidity
65276;BME280;51875;49.994;14.052;2022-09-25T00:00:29;98025.28;;;9.91;100.00
65276;BME280;51875;49.994;14.052;2022-09-25T00:02:05;98026.13;;;10.18;100.00
65276;BME280;51875;49.994;14.052;2022-09-25T00:03:22;98024.16;;;10.25;100.00
65276;BME280;51875;49.994;14.052;2022-09-25T00:04:39;98027.53;;;10.28;100.00
65276;BME280;51875;49.994;14.052;2022-09-25T00:06:06;98031.72;;;10.34;100.00
65276;BME280;51875;49.994;14.052;2022-09-25T00:07:23;98027.44;;;10.31;100.00
65276;BME280;51875;49.994;14.052;2022-09-25T00:08:39;98035.34;;;10.30;100.00
65276;BME280;51875;49.994;14.052;2022-09-25T00:09:55;98031.72;;;10.34;100.00
65276;BME280;51875;49.994;14.052;2022-09-25T00:11:13;98033.38;;;10.37;100.00
65276;BME280;51875;49.994;14.052;2022-09-25T00:12:29;98030.63;;;10.14;100.00
65276;BME280;51875;49.994;14.052;2022-09-25T00:13:45;98032.38;;;10.14;100.00
65276;BME280;51875;49.994;14.052;2022-09-25T00:15:01;98022.84;;;10.38;100.00
65276;BME280;51875;49.994;14.052;2022-09-25T00:16:19;98024.44;;;10.44;100.00
65276;BME280;51875;49.994;14.052;2022-09-25T00:17:35;98022.69;;;10.44;100.00
65276;BME280;51875;49.994;14.052;2022-09-25T00:18:51;98024.16;;;10.52;100.00
65276;BME280;51875;49.994;14.052;2022-09-25T00:20:25;98025.34;;;10.43;100.00
65276;BME280;51875;49.994;14.052;2022-09-25T00:21:41;98019.03;;;10.49;100.00
65276;BME280;51875;49.994;14.052;2022-09-25T00:22:58;98021.63;;;10.50;100.00
65276;BME280;51875;49.994;14.052;2022-09-25T00:24:17;98014.09;;;10.39;100.00
65276;BME280;51875;49.994;14.052;2022-09-25T00:25:33;98026.91;;;10.49;100.00
65276;BME280;51875;49.994;14.052;2022-09-25T00:26:48;98021.63;;;10.50;100.00
65276;BME280;51875;49.994;14.052;2022-09-25T00:28:04;98020.56;;;10.56;100.00
65276;BME280;51875;49.994;14.052;2022-09-25T00:29:20;98024.91;;;10.55;100.00
65276;BME280;51875;49.994;14.052;2022-09-25T00:30:39;98014.94;;;10.40;100.00
65276;BME280;51875;49.994;14.052;2022-09-25T00:31:55;98025.03;;;10.52;100.00
65276;BME280;51875;49.994;14.052;2022-09-25T00:33:11;98015.59;;;10.48;100.00
65276;BME280;51875;49.994;14.052;2022-09-25T00:34:27;98009.25;;;10.54;100.00
65276;BME280;51875;49.994;14.052;2022-09-25T00:35:42;98010.16;;;10.53;100.00
65276;BME280;51875;49.994;14.052;2022-09-25T00:36:57;98008.97;;;10.36;100.00
65276;BME280;51875;49.994;14.052;2022-09-25T00:38:13;98010.53;;;10.15;100.00
65276;BME280;51875;49.994;14.052;2022-09-25T00:39:30;98017.88;;;10.03;100.00
65276;BME280;51875;49.994;14.052;2022-09-25T00:40:45;98012.75;;;10.00;100.00
65276;BME280;51875;49.994;14.052;2022-09-25T00:42:01;98009.78;;;10.11;100.00
65276;BME280;51875;49.994;14.052;2022-09-25T00:43:41;98017.47;;;10.16;100.00
65276;BME280;51875;49.994;14.052;2022-09-25T00:45:00;98014.03;;;10.15;100.00
65276;BME280;51875;49.994;14.052;2022-09-25T00:47:50;98010.66;;;10.12;100.00
65276;BME280;51875;49.994;14.052;2022-09-25T00:49:15;98016.78;;;10.38;100.00
65276;BME280;51875;49.994;14.052;2022-09-25T00:50:38;98013.81;;;10.22;100.00
65276;BME280;51875;49.994;14.052;2022-09-25T00:52:02;98015.59;;;10.21;100.00
65276;BME280;51875;49.994;14.052;2022-09-25T00:53:27;98013.50;;;10.31;100.00
65276;BME280;51875;49.994;14.052;2022-09-25T00:54:54;98020.19;;;10.41;100.00
65276;BME280;51875;49.994;14.052;2022-09-25T00:56:12;98021.66;;;10.49;100.00
65276;BME280;51875;49.994;14.052;2022-09-25T00:57:30;98013.81;;;10.49;100.00
65276;BME280;51875;49.994;14.052;2022-09-25T00:58:47;98019.72;;;10.54;100.00
65276;BME280;51875;49.994;14.052;2022-09-25T01:00:09;98019.91;;;10.49;100.00
65276;BME280;51875;49.994;14.052;2022-09-25T01:01:26;98015.31;;;10.56;100.00
65276;BME280;51875;49.994;14.052;2022-09-25T01:02:44;98016.97;;;10.58;100.00
65276;BME280;51875;49.994;14.052;2022-09-25T01:04:01;98003.88;;;10.58;100.00
65276;BME280;51875;49.994;14.052;2022-09-25T01:05:21;98009.09;;;10.58;100.00
65276;BME280;51875;49.994;14.052;2022-09-25T01:06:38;98008.25;;;10.58;100.00
65276;BME280;51875;49.994;14.052;2022-09-25T01:07:55;98004.84;;;10.56;100.00
65276;BME280;51875;49.994;14.052;2022-09-25T01:09:11;98006.72;;;10.52;100.00
65276;BME280;51875;49.994;14.052;2022-09-25T01:10:28;98006.75;;;10.51;100.00
65276;BME280;51875;49.994;14.052;2022-09-25T01:11:43;98004.94;;;10.53;100.00
65276;BME280;51875;49.994;14.052;2022-09-25T01:12:59;97998.75;;;10.55;100.00
65276;BME280;51875;49.994;14.052;2022-09-25T01:14:15;98004.91;;;10.54;100.00
65276;BME280;51875;49.994;14.052;2022-09-25T01:15:47;98003.94;;;10.57;100.00
65276;BME280;51875;49.994;14.052;2022-09-25T01:17:39;98010.00;;;10.57;100.00
65276;BME280;51875;49.994;14.052;2022-09-25T01:22:07;98012.97;;;10.21;100.00
65276;BME280;51875;49.994;14.052;2022-09-25T01:31:09;98002.16;;;10.30;100.00
65276;BME280;51875;49.994;14.052;2022-09-25T01:32:48;98005.53;;;10.34;100.00
65276;BME280;51875;49.994;14.052;2022-09-25T01:34:26;98008.84;;;10.41;100.00
65276;BME280;51875;49.994;14.052;2022-09-25T01:36:14;98002.31;;;10.26;100.00
65276;BME280;51875;49.994;14.052;2022-09-25T01:38:54;98003.72;;;10.11;100.00
65276;BME280;51875;49.994;14.052;2022-09-25T01:42:23;98007.41;;;10.30;100.00
65276;BME280;51875;49.994;14.052;2022-09-25T01:44:04;98000.44;;;10.31;100.00
65276;BME280;51875;49.994;14.052;2022-09-25T01:45:32;97991.78;;;10.29;100.00
65276;BME280;51875;49.994;14.052;2022-09-25T01:46:52;97990.16;;;10.25;100.00
65276;BME280;51875;49.994;14.052;2022-09-25T01:48:10;97995.38;;;10.25;100.00
65276;BME280;51875;49.994;14.052;2022-09-25T01:49:31;97995.44;;;10.23;100.00
65276;BME280;51875;49.994;14.052;2022-09-25T01:51:01;98001.84;;;10.14;100.00
65276;BME280;51875;49.994;14.052;2022-09-25T01:52:22;97998.66;;;10.04;100.00
65276;BME280;51875;49.994;14.052;2022-09-25T01:53:49;98000.03;;;9.89;100.00
65276;BME280;51875;49.994;14.052;2022-09-25T01:56:37;98007.09;;;9.87;100.00
65276;BME280;51875;49.994;14.052;2022-09-25T01:58:18;98001.53;;;9.97;100.00
65276;BME280;51875;49.994;14.052;2022-09-25T01:59:36;97998.00;;;9.98;100.00
65276;BME280;51875;49.994;14.052;2022-09-25T02:00:57;97990.34;;;9.93;100.00
65276;BME280;51875;49.994;14.052;2022-09-25T02:02:18;97999.03;;;9.94;100.00
65276;BME280;51875;49.994;14.052;2022-09-25T02:03:42;97997.06;;;10.00;100.00
65276;BME280;51875;49.994;14.052;2022-09-25T02:06:22;97996.94;;;10.03;100.00
65276;BME280;51875;49.994;14.052;2022-09-25T02:07:44;97990.34;;;9.93;100.00
65276;BME280;51875;49.994;14.052;2022-09-25T02:09:09;97994.91;;;9.86;100.00
65276;BME280;51875;49.994;14.052;2022-09-25T02:10:33;97989.88;;;9.80;100.00
65276;BME280;51875;49.994;14.052;2022-09-25T02:11:52;97986.34;;;9.81;100.00
65276;BME280;51875;49.994;14.052;2022-09-25T02:13:15;97979.38;;;9.82;100.00
65276;BME280;51875;49.994;14.052;2022-09-25T02:14:40;97984.78;;;9.75;100.00
65276;BME280;51875;49.994;14.052;2022-09-25T02:16:03;97982.28;;;9.72;100.00
65276;BME280;51875;49.994;14.052;2022-09-25T02:17:27;97986.69;;;9.70;100.00
65276;BME280;51875;49.994;14.052;2022-09-25T02:19:23;97978.56;;;9.80;100.00
65276;BME280;51875;49.994;14.052;2022-09-25T02:21:06;97976.84;;;9.79;100.00
65276;BME280;51875;49.994;14.052;2022-09-25T02:22:29;97979.88;;;9.66;100.00
65276;BME280;51875;49.994;14.052;2022-09-25T02:25:38;97974.56;;;9.68;100.00
65276;BME280;51875;49.994;14.052;2022-09-25T02:26:55;97982.97;;;9.78;100.00
65276;BME280;51875;49.994;14.052;2022-09-25T02:28:10;97979.38;;;9.82;100.00
65276;BME280;51875;49.994;14.052;2022-09-25T02:29:26;97985.25;;;9.88;100.00
65276;BME280;51875;49.994;14.052;2022-09-25T02:30:43;97984.53;;;9.83;100.00
65276;BME280;51875;49.994;14.052;2022-09-25T02:32:03;97984.34;;;9.89;100.00
65276;BME280;51875;49.994;14.052;2022-09-25T02:33:20;97983.34;;;9.94;100.00
65276;BME280;51875;49.994;14.052;2022-09-25T02:34:35;97980.97;;;9.86;100.00
65276;BME280;51875;49.994;14.052;2022-09-25T02:35:52;97976.75;;;9.82;100.00
65276;BME280;51875;49.994;14.052;2022-09-25T02:37:12;97974.91;;;9.85;100.00
65276;BME280;51875;49.994;14.052;2022-09-25T02:38:29;97985.34;;;9.58;100.00
65276;BME280;51875;49.994;14.052;2022-09-25T02:39:49;97983.81;;;9.80;100.00
65276;BME280;51875;49.994;14.052;2022-09-25T02:42:49;97982.91;;;9.52;100.00
65276;BME280;51875;49.994;14.052;2022-09-25T02:45:49;97974.72;;;9.63;100.00
65276;BME280;51875;49.994;14.052;2022-09-25T02:49:19;97973.84;;;9.64;100.00
65276;BME280;51875;49.994;14.052;2022-09-25T02:50:41;97977.31;;;9.63;100.00
65276;BME280;51875;49.994;14.052;2022-09-25T02:52:05;97972.81;;;9.68;100.00
65276;BME280;51875;49.994;14.052;2022-09-25T02:53:39;97977.31;;;9.63;100.00
65276;BME280;51875;49.994;14.052;2022-09-25T02:55:09;97971.13;;;9.67;100.00
65276;BME280;51875;49.994;14.052;2022-09-25T02:56:37;97982.09;;;9.79;100.00
65276;BME280;51875;49.994;14.052;2022-09-25T02:58:12;97982.38;;;9.69;100.00
65276;BME280;51875;49.994;14.052;2022-09-25T02:59:35;97978.88;;;9.69;100.00
65276;BME280;51875;49.994;14.052;2022-09-25T03:00:54;97978.16;;;9.65;100.00
65276;BME280;51875;49.994;14.052;2022-09-25T03:02:11;97972.09;;;9.63;100.00
65276;BME280;51875;49.994;14.052;2022-09-25T03:03:28;97976.63;;;9.58;100.00
65276;BME280;51875;49.994;14.052;2022-09-25T03:04:47;97973.56;;;9.45;100.00
65276;BME280;51875;49.994;14.052;2022-09-25T03:06:06;97972.97;;;9.35;100.00
65276;BME280;51875;49.994;14.052;2022-09-25T03:07:23;97970.44;;;9.32;100.00
65276;BME280;51875;49.994;14.052;2022-09-25T03:08:43;97971.56;;;9.25;100.00
65276;BME280;51875;49.994;14.052;2022-09-25T03:10:01;97972.22;;;9.31;100.00
65276;BME280;51875;49.994;14.052;2022-09-25T03:11:19;97976.41;;;9.37;100.00
65276;BME280;51875;49.994;14.052;2022-09-25T03:12:35;97969.28;;;9.42;100.00
65276;BME280;51875;49.994;14.052;2022-09-25T03:14:09;97972.97;;;9.35;100.00
65276;BME280;51875;49.994;14.052;2022-09-25T03:15:25;97973.59;;;9.43;100.00
65276;BME280;51875;49.994;14.052;2022-09-25T03:16:47;97974.88;;;9.30;100.00
65276;BME280;51875;49.994;14.052;2022-09-25T03:18:04;97972.28;;;9.28;100.00
65276;BME280;51875;49.994;14.052;2022-09-25T03:19:20;97973.97;;;9.31;100.00
65276;BME280;51875;49.994;14.052;2022-09-25T03:20:36;97981.44;;;9.43;100.00
65276;BME280;51875;49.994;14.052;2022-09-25T03:21:51;97970.44;;;9.32;100.00
65276;BME280;51875;49.994;14.052;2022-09-25T03:23:08;97967.72;;;9.35;100.00
65276;BME280;51875;49.994;14.052;2022-09-25T03:24:24;97965.72;;;9.45;100.00
65276;BME280;51875;49.994;14.052;2022-09-25T03:25:40;97967.47;;;9.44;100.00
65276;BME280;51875;49.994;14.052;2022-09-25T03:26:55;97964.25;;;9.36;100.00
65276;BME280;51875;49.994;14.052;2022-09-25T03:28:11;97966.22;;;9.28;100.00
65276;BME280;51875;49.994;14.052;2022-09-25T03:29:27;97972.88;;;9.38;100.00
65276;BME280;51875;49.994;14.052;2022-09-25T03:30:54;97967.28;;;9.51;100.00
65276;BME280;51875;49.994;14.052;2022-09-25T03:32:10;97970.78;;;9.50;100.00
65276;BME280;51875;49.994;14.052;2022-09-25T03:33:27;97961.31;;;9.45;100.00
65276;BME280;51875;49.994;14.052;2022-09-25T03:34:43;97962.44;;;9.38;100.00
65276;BME280;51875;49.994;14.052;2022-09-25T03:36:01;97959.63;;;9.44;100.00
65276;BME280;51875;49.994;14.052;2022-09-25T03:37:17;97960.13;;;9.56;100.00
65276;BME280;51875;49.994;14.052;2022-09-25T03:38:32;97963.53;;;9.59;100.00
65276;BME280;51875;49.994;14.052;2022-09-25T03:39:48;97965.13;;;9.64;100.00
65276;BME280;51875;49.994;14.052;2022-09-25T03:41:04;97963.53;;;9.59;100.00
65276;BME280;51875;49.994;14.052;2022-09-25T03:42:23;97964.88;;;9.71;100.00
65276;BME280;51875;49.994;14.052;2022-09-25T03:43:42;97959.53;;;9.74;100.00
65276;BME280;51875;49.994;14.052;2022-09-25T03:44:57;97960.94;;;9.58;100.00
65276;BME280;51875;49.994;14.052;2022-09-25T03:46:13;97964.50;;;9.55;100.00
65276;BME280;51875;49.994;14.052;2022-09-25T03:47:29;97960.03;;;9.59;100.00
65276;BME280;51875;49.994;14.052;2022-09-25T03:48:45;97967.59;;;9.40;100.00
65276;BME280;51875;49.994;14.052;2022-09-25T03:50:00;97971.19;;;9.37;100.00
65276;BME280;51875;49.994;14.052;2022-09-25T03:51:16;97967.34;;;9.47;100.00
65276;BME280;51875;49.994;14.052;2022-09-25T03:52:33;97957.19;;;9.67;100.00
65276;BME280;51875;49.994;14.052;2022-09-25T03:53:49;97964.19;;;9.66;100.00
65276;BME280;51875;49.994;14.052;2022-09-25T03:55:05;97966.59;;;9.72;100.00
65276;BME280;51875;49.994;14.052;2022-09-25T03:56:24;97965.63;;;9.75;100.00
65276;BME280;51875;49.994;14.052;2022-09-25T03:57:39;97964.78;;;9.74;100.00
65276;BME280;51875;49.994;14.052;2022-09-25T03:58:56;97971.00;;;9.70;100.00
65276;BME280;51875;49.994;14.052;2022-09-25T04:00:12;97959.78;;;9.67;100.00
65276;BME280;51875;49.994;14.052;2022-09-25T04:01:28;97966.00;;;9.64;100.00
65276;BME280;51875;49.994;14.052;2022-09-25T04:02:44;97960.13;;;9.56;100.00
65276;BME280;51875;49.994;14.052;2022-09-25T04:03:59;97962.06;;;9.51;100.00
65276;BME280;51875;49.994;14.052;2022-09-25T04:05:17;97968.59;;;9.64;100.00
65276;BME280;51875;49.994;14.052;2022-09-25T04:06:34;97970.59;;;9.56;100.00
65276;BME280;51875;49.994;14.052;2022-09-25T04:07:50;97970.31;;;9.37;100.00
65276;BME280;51875;49.994;14.052;2022-09-25T04:09:06;97967.47;;;9.44;100.00
65276;BME280;51875;49.994;14.052;2022-09-25T04:10:21;97977.25;;;9.38;100.00
65276;BME280;51875;49.994;14.052;2022-09-25T04:11:37;97971.63;;;9.50;100.00
65276;BME280;51875;49.994;14.052;2022-09-25T04:12:53;97966.88;;;9.63;100.00
65276;BME280;51875;49.994;14.052;2022-09-25T04:14:09;97969.56;;;9.61;100.00
65276;BME280;51875;49.994;14.052;2022-09-25T04:15:26;97964.00;;;9.44;100.00
65276;BME280;51875;49.994;14.052;2022-09-25T04:16:42;97976.16;;;9.45;100.00
65276;BME280;51875;49.994;14.052;2022-09-25T04:17:57;97975.06;;;9.52;100.00
65276;BME280;51875;49.994;14.052;2022-09-25T04:19:13;97971.78;;;9.45;100.00
65276;BME280;51875;49.994;14.052;2022-09-25T04:20:30;97966.53;;;9.47;100.00
65276;BME280;51875;49.994;14.052;2022-09-25T04:21:45;97976.09;;;9.46;100.00
65276;BME280;51875;49.994;14.052;2022-09-25T04:23:01;97970.84;;;9.48;100.00
65276;BME280;51875;49.994;14.052;2022-09-25T04:24:17;97972.59;;;9.47;100.00
65276;BME280;51875;49.994;14.052;2022-09-25T04:25:52;97971.31;;;9.32;100.00
65276;BME280;51875;49.994;14.052;2022-09-25T04:27:07;97970.91;;;9.16;100.00
65276;BME280;51875;49.994;14.052;2022-09-25T04:28:24;97973.06;;;9.32;100.00
65276;BME280;51875;49.994;14.052;2022-09-25T04:29:40;97968.47;;;9.40;100.00
65276;BME280;51875;49.994;14.052;2022-09-25T04:30:56;97964.91;;;9.43;100.00
65276;BME280;51875;49.994;14.052;2022-09-25T04:32:14;97972.53;;;9.49;100.00
65276;BME280;51875;49.994;14.052;2022-09-25T04:33:48;97976.00;;;9.50;100.00
65276;BME280;51875;49.994;14.052;2022-09-25T04:35:05;97971.41;;;9.58;100.00
65276;BME280;51875;49.994;14.052;2022-09-25T04:36:20;97973.06;;;9.60;100.00
65276;BME280;51875;49.994;14.052;2022-09-25T04:37:36;97976.63;;;9.58;100.00
65276;BME280;51875;49.994;14.052;2022-09-25T04:38:51;97970.03;;;9.46;100.00
65276;BME280;51875;49.994;14.052;2022-09-25T04:40:07;97971.97;;;9.39;100.00
65276;BME280;51875;49.994;14.052;2022-09-25T04:41:23;97974.41;;;9.45;100.00
65276;BME280;51875;49.994;14.052;2022-09-25T04:42:39;97969.50;;;9.35;100.00
65276;BME280;51875;49.994;14.052;2022-09-25T04:43:56;97968.06;;;9.24;100.00
65276;BME280;51875;49.994;14.052;2022-09-25T04:45:11;97970.94;;;9.15;100.00
65276;BME280;51875;49.994;14.052;2022-09-25T04:46:27;97971.03;;;9.12;100.00
65276;BME280;51875;49.994;14.052;2022-09-25T04:47:43;97974.56;;;9.11;100.00
65276;BME280;51875;49.994;14.052;2022-09-25T04:48:58;97972.75;;;9.13;100.00
65276;BME280;51875;49.994;14.052;2022-09-25T04:50:14;97976.03;;;9.19;100.00
65276;BME280;51875;49.994;14.052;2022-09-25T04:51:29;97975.06;;;9.24;100.00
65276;BME280;51875;49.994;14.052;2022-09-25T04:52:45;97979.38;;;9.25;100.00
65276;BME280;51875;49.994;14.052;2022-09-25T04:54:01;97975.66;;;9.32;100.00
65276;BME280;51875;49.994;14.052;2022-09-25T04:55:21;97974.91;;;9.28;100.00
65276;BME280;51875;49.994;14.052;2022-09-25T04:56:38;97979.03;;;9.37;100.00
65276;BME280;51875;49.994;14.052;2022-09-25T04:57:59;97972.75;;;9.43;100.00
65276;BME280;51875;49.994;14.052;2022-09-25T04:59:14;97970.88;;;9.46;100.00
65276;BME280;51875;49.994;14.052;2022-09-25T05:00:33;97976.88;;;9.50;100.00
65276;BME280;51875;49.994;14.052;2022-09-25T05:01:49;97974.16;;;9.53;100.00
65276;BME280;51875;49.994;14.052;2022-09-25T05:03:05;97977.53;;;9.57;100.00
65276;BME280;51875;49.994;14.052;2022-09-25T05:04:20;97975.56;;;9.35;100.00
65276;BME280;51875;49.994;14.052;2022-09-25T05:05:36;97976.56;;;9.31;100.00
65276;BME280;51875;49.994;14.052;2022-09-25T05:06:52;97981.00;;;9.29;100.00
65276;BME280;51875;49.994;14.052;2022-09-25T05:08:09;97986.31;;;9.26;100.00
65276;BME280;51875;49.994;14.052;2022-09-25T05:09:25;97978.94;;;9.10;100.00
65276;BME280;51875;49.994;14.052;2022-09-25T05:10:42;97978.94;;;9.10;100.00
65276;BME280;51875;49.994;14.052;2022-09-25T05:11:58;97983.84;;;9.21;100.00
65276;BME280;51875;49.994;14.052;2022-09-25T05:13:14;97984.53;;;8.98;100.00
65276;BME280;51875;49.994;14.052;2022-09-25T05:14:29;97985.59;;;9.21;100.00
65276;BME280;51875;49.994;14.052;2022-09-25T05:15:45;97980.91;;;9.02;100.00
65276;BME280;51875;49.994;14.052;2022-09-25T05:17:00;97980.13;;;8.98;100.00
65276;BME280;51875;49.994;14.052;2022-09-25T05:18:21;97983.50;;;9.32;100.00
65276;BME280;51875;49.994;14.052;2022-09-25T05:19:38;97985.13;;;9.06;100.00
65276;BME280;51875;49.994;14.052;2022-09-25T05:20:53;97974.16;;;8.95;100.00
65276;BME280;51875;49.994;14.052;2022-09-25T05:22:09;97975.22;;;9.17;100.00
65276;BME280;51875;49.994;14.052;2022-09-25T05:23:25;97976.56;;;9.31;100.00
65276;BME280;51875;49.994;14.052;2022-09-25T05:24:40;97979.19;;;9.31;100.00
65276;BME280;51875;49.994;14.052;2022-09-25T05:25:56;97971.06;;;9.40;100.00
65276;BME280;51875;49.994;14.052;2022-09-25T05:27:16;97980.50;;;9.46;100.00
65276;BME280;51875;49.994;14.052;2022-09-25T05:28:32;97969.28;;;9.42;100.00
65276;BME280;51875;49.994;14.052;2022-09-25T05:29:47;97984.03;;;9.43;100.00
65276;BME280;51875;49.994;14.052;2022-09-25T05:31:04;97976.09;;;9.46;100.00
65276;BME280;51875;49.994;14.052;2022-09-25T05:32:20;97979.44;;;9.52;100.00
65276;BME280;51875;49.994;14.052;2022-09-25T05:33:37;97977.56;;;9.55;100.00
65276;BME280;51875;49.994;14.052;2022-09-25T05:34:52;97978.16;;;9.65;100.00
65276;BME280;51875;49.994;14.052;2022-09-25T05:36:09;97977.66;;;9.52;100.00
65276;BME280;51875;49.994;14.052;2022-09-25T05:37:24;97982.47;;;9.66;100.00
65276;BME280;51875;49.994;14.052;2022-09-25T05:38:40;97980.66;;;9.40;100.00
65276;BME280;51875;49.994;14.052;2022-09-25T05:39:56;97981.06;;;9.56;100.00
65276;BME280;51875;49.994;14.052;2022-09-25T05:41:11;97980.78;;;9.65;100.00
65276;BME280;51875;49.994;14.052;2022-09-25T05:42:29;97985.16;;;9.63;100.00
65276;BME280;51875;49.994;14.052;2022-09-25T05:43:45;97983.56;;;9.59;100.00
65276;BME280;51875;49.994;14.052;2022-09-25T05:45:05;97978.09;;;9.67;100.00
65276;BME280;51875;49.994;14.052;2022-09-25T05:46:21;97978.06;;;9.68;100.00
65276;BME280;51875;49.994;14.052;2022-09-25T05:47:37;97972.69;;;9.73;100.00
65276;BME280;51875;49.994;14.052;2022-09-25T05:48:53;97976.38;;;9.66;100.00
65276;BME280;51875;49.994;14.052;2022-09-25T05:50:11;97972.88;;;9.67;100.00
65276;BME280;51875;49.994;14.052;2022-09-25T05:51:27;97969.47;;;9.63;100.00
65276;BME280;51875;49.994;14.052;2022-09-25T05:52:43;97983.34;;;9.38;100.00
65276;BME280;51875;49.994;14.052;2022-09-25T05:53:59;97982.00;;;9.25;100.00
65276;BME280;51875;49.994;14.052;2022-09-25T05:55:14;97977.63;;;9.25;100.00
65276;BME280;51875;49.994;14.052;2022-09-25T05:56:30;97978.66;;;9.19;100.00
65276;BME280;51875;49.994;14.052;2022-09-25T05:57:45;97986.09;;;9.33;100.00
65276;BME280;51875;49.994;14.052;2022-09-25T05:59:01;97980.41;;;9.47;100.00
65276;BME280;51875;49.994;14.052;2022-09-25T06:00:17;97982.00;;;9.53;100.00
65276;BME280;51875;49.994;14.052;2022-09-25T06:01:33;97979.06;;;9.64;100.00
65276;BME280;51875;49.994;14.052;2022-09-25T06:02:51;97973.06;;;9.60;100.00
65276;BME280;51875;49.994;14.052;2022-09-25T06:04:07;97968.91;;;9.82;100.00
65276;BME280;51875;49.994;14.052;2022-09-25T06:05:24;97960.44;;;10.00;100.00
65276;BME280;51875;49.994;14.052;2022-09-25T06:06:39;97968.91;;;10.09;100.00
65276;BME280;51875;49.994;14.052;2022-09-25T06:07:55;97965.50;;;10.07;100.00
65276;BME280;51875;49.994;14.052;2022-09-25T06:09:11;97966.34;;;10.07;100.00
65276;BME280;51875;49.994;14.052;2022-09-25T06:10:27;97963.31;;;9.93;100.00
65276;BME280;51875;49.994;14.052;2022-09-25T06:11:42;97969.28;;;10.23;100.00
65276;BME280;51875;49.994;14.052;2022-09-25T06:13:02;97965.50;;;10.07;100.00
65276;BME280;51875;49.994;14.052;2022-09-25T06:14:19;97969.97;;;10.28;100.00
65276;BME280;51875;49.994;14.052;2022-09-25T06:15:36;97956.78;;;10.31;100.00
65276;BME280;51875;49.994;14.052;2022-09-25T06:16:53;97964.09;;;10.49;100.00
65276;BME280;51875;49.994;14.052;2022-09-25T06:18:09;97961.97;;;10.58;100.00
65276;BME280;51875;49.994;14.052;2022-09-25T06:19:24;97962.09;;;10.55;100.00
65276;BME280;51875;49.994;14.052;2022-09-25T06:20:43;97960.44;;;10.53;100.00
65276;BME280;51875;49.994;14.052;2022-09-25T06:21:58;97965.34;;;10.37;100.00
65276;BME280;51875;49.994;14.052;2022-09-25T06:23:14;97959.13;;;10.39;100.00
65276;BME280;51875;49.994;14.052;2022-09-25T06:24:30;97958.69;;;10.53;100.00
65276;BME280;51875;49.994;14.052;2022-09-25T06:25:46;97959.59;;;10.52;100.00
65276;BME280;51875;49.994;14.052;2022-09-25T06:27:02;97955.91;;;10.58;100.00
65276;BME280;51875;49.994;14.052;2022-09-25T06:28:17;97962.72;;;10.62;100.00
65276;BME280;51875;49.994;14.052;2022-09-25T06:29:33;97963.53;;;10.64;100.00
65276;BME280;51875;49.994;14.052;2022-09-25T06:30:49;97961.81;;;10.63;100.00
65276;BME280;51875;49.994;14.052;2022-09-25T06:32:04;97965.22;;;10.65;100.00
65276;BME280;51875;49.994;14.052;2022-09-25T06:33:20;97962.63;;;10.65;100.00
65276;BME280;51875;49.994;14.052;2022-09-25T06:34:35;97973.88;;;10.67;100.00
65276;BME280;51875;49.994;14.052;2022-09-25T06:35:51;97968.75;;;10.64;100.00
65276;BME280;51875;49.994;14.052;2022-09-25T06:37:06;97973.97;;;10.66;100.00
65276;BME280;51875;49.994;14.052;2022-09-25T06:38:23;97971.84;;;10.76;100.00
65276;BME280;51875;49.994;14.052;2022-09-25T06:39:38;97978.34;;;10.89;100.00
65276;BME280;51875;49.994;14.052;2022-09-25T06:40:54;97977.16;;;10.98;100.00
65276;BME280;51875;49.994;14.052;2022-09-25T06:42:09;97972.03;;;10.95;100.00
65276;BME280;51875;49.994;14.052;2022-09-25T06:43:25;97979.38;;;10.85;100.00
65276;BME280;51875;49.994;14.052;2022-09-25T06:44:42;97969.28;;;10.74;100.00
65276;BME280;51875;49.994;14.052;2022-09-25T06:45:59;97970.00;;;10.79;100.00
65276;BME280;51875;49.994;14.052;2022-09-25T06:47:16;97969.41;;;10.71;100.00
65276;BME280;51875;49.994;14.052;2022-09-25T06:48:32;97973.16;;;10.87;100.00
65276;BME280;51875;49.994;14.052;2022-09-25T06:49:47;97975.53;;;10.70;100.00
65276;BME280;51875;49.994;14.052;2022-09-25T06:51:03;97975.50;;;10.95;100.00
65276;BME280;51875;49.994;14.052;2022-09-25T06:52:19;97972.81;;;10.97;100.00
65276;BME280;51875;49.994;14.052;2022-09-25T06:53:35;97972.50;;;10.82;100.00
65276;BME280;51875;49.994;14.052;2022-09-25T06:54:50;97972.88;;;10.71;100.00
65276;BME280;51875;49.994;14.052;2022-09-25T06:56:06;97973.16;;;10.64;100.00
65276;BME280;51875;49.994;14.052;2022-09-25T06:57:22;97980.47;;;10.79;100.00
65276;BME280;51875;49.994;14.052;2022-09-25T06:58:37;97974.00;;;10.64;100.00
65276;BME280;51875;49.994;14.052;2022-09-25T06:59:53;97978.28;;;10.67;100.00
65276;BME280;51875;49.994;14.052;2022-09-25T07:01:09;97978.44;;;10.62;100.00
65276;BME280;51875;49.994;14.052;2022-09-25T07:02:26;97979.22;;;10.64;100.00
65276;BME280;51875;49.994;14.052;2022-09-25T07:04:00;97973.63;;;10.99;100.00
65276;BME280;51875;49.994;14.052;2022-09-25T07:05:16;97979.72;;;10.99;100.00
65276;BME280;51875;49.994;14.052;2022-09-25T07:06:33;97975.41;;;10.98;100.00
65276;BME280;51875;49.994;14.052;2022-09-25T07:07:49;97983.75;;;11.08;100.00
65276;BME280;51875;49.994;14.052;2022-09-25T07:09:04;97977.06;;;11.23;100.00
65276;BME280;51875;49.994;14.052;2022-09-25T07:10:21;97982.53;;;11.19;100.00
65276;BME280;51875;49.994;14.052;2022-09-25T07:11:36;97985.22;;;11.39;100.00
65276;BME280;51875;49.994;14.052;2022-09-25T07:12:52;97987.38;;;11.28;100.00
65276;BME280;51875;49.994;14.052;2022-09-25T07:14:08;97991.09;;;11.22;100.00